createdAt,value
2022-12-25T00:03:38.655Z,13.50
2022-12-25T00:08:47.245Z,12.20
2022-12-25T00:13:55.802Z,13.10
2022-12-25T00:19:04.143Z,10.70
2022-12-25T00:24:13.251Z,14.70
2022-12-25T00:29:22.257Z,14.20
2022-12-25T00:34:30.768Z,11.70
2022-12-25T00:39:39.364Z,10.30
2022-12-25T00:44:48.232Z,12.50
2022-12-25T00:49:57.012Z,9.00
2022-12-25T00:55:06.001Z,10.00
2022-12-25T01:00:17.101Z,10.60
2022-12-25T01:05:25.695Z,8.60
2022-12-25T01:10:33.980Z,10.40
2022-12-25T01:15:42.420Z,9.00
2022-12-25T01:20:50.606Z,11.80
2022-12-25T01:25:58.901Z,13.70
2022-12-25T01:31:07.687Z,13.50
2022-12-25T01:36:19.470Z,9.60
2022-12-25T01:41:29.038Z,10.40
2022-12-25T01:46:38.095Z,8.90
2022-12-25T01:51:50.007Z,10.00
2022-12-25T01:57:03.327Z,9.10
2022-12-25T02:02:12.052Z,10.10
2022-12-25T02:07:22.572Z,12.10
2022-12-25T02:12:34.860Z,9.10
2022-12-25T02:23:07.321Z,11.00
2022-12-25T02:28:23.634Z,14.00
2022-12-25T02:33:57.354Z,10.60
2022-12-25T02:39:26.745Z,13.00
2022-12-25T02:44:55.554Z,13.80
2022-12-25T02:50:23.866Z,14.60
2022-12-25T02:55:54.328Z,14.30
2022-12-25T03:01:26.206Z,13.80
2022-12-25T03:06:46.990Z,14.50
2022-12-25T03:12:03.601Z,11.40
2022-12-25T03:17:12.414Z,13.40
2022-12-25T03:22:45.693Z,15.40
2022-12-25T03:27:56.412Z,13.80
2022-12-25T03:33:37.191Z,12.30
2022-12-25T03:39:13.949Z,14.90
2022-12-25T03:44:41.431Z,11.30
2022-12-25T03:50:15.676Z,26.90
2022-12-25T03:55:57.178Z,17.10
2022-12-25T04:01:24.525Z,13.70
2022-12-25T04:06:50.499Z,13.70
2022-12-25T04:12:16.532Z,15.50
2022-12-25T04:17:44.551Z,16.40
2022-12-25T04:23:10.776Z,13.80
2022-12-25T04:28:35.686Z,15.80
2022-12-25T04:34:02.976Z,16.70
2022-12-25T04:39:12.756Z,16.00
2022-12-25T04:44:21.147Z,16.30
2022-12-25T04:49:29.483Z,14.20
2022-12-25T04:54:39.063Z,14.70
2022-12-25T04:59:47.356Z,13.90
2022-12-25T05:04:55.813Z,16.00
2022-12-25T05:10:04.014Z,16.30
2022-12-25T05:15:13.265Z,16.70
2022-12-25T05:20:22.305Z,15.70
2022-12-25T05:25:30.713Z,16.70
2022-12-25T05:30:39.259Z,19.90
2022-12-25T05:35:47.569Z,17.60
2022-12-25T05:40:56.544Z,21.60
2022-12-25T05:46:09.537Z,23.00
2022-12-25T05:51:18.691Z,23.80
2022-12-25T05:56:27.036Z,20.10
2022-12-25T06:01:35.582Z,23.80
2022-12-25T06:06:44.122Z,24.90
2022-12-25T06:11:52.412Z,23.90
2022-12-25T06:17:01.171Z,24.60
2022-12-25T06:22:10.166Z,23.50
2022-12-25T06:27:18.859Z,23.80
2022-12-25T06:32:27.257Z,20.40
2022-12-25T06:37:35.838Z,23.60
2022-12-25T06:42:44.398Z,22.40
2022-12-25T06:47:52.616Z,27.00
2022-12-25T06:53:01.598Z,23.30
2022-12-25T06:58:10.172Z,22.30
2022-12-25T07:03:24.150Z,38.10
2022-12-25T07:08:32.674Z,27.80
2022-12-25T07:13:42.155Z,31.10
2022-12-25T07:18:50.556Z,26.50
2022-12-25T07:23:58.842Z,29.20
2022-12-25T07:29:07.220Z,22.40
2022-12-25T07:34:15.467Z,26.00
2022-12-25T07:39:24.080Z,24.30
2022-12-25T07:44:32.316Z,26.80
2022-12-25T07:49:40.559Z,26.20
2022-12-25T07:54:48.950Z,28.80
2022-12-25T07:59:57.376Z,28.40
2022-12-25T08:05:06.047Z,25.20
2022-12-25T08:10:15.204Z,29.00
2022-12-25T08:15:24.171Z,26.40
2022-12-25T08:20:32.308Z,28.70
2022-12-25T08:25:40.934Z,30.80
2022-12-25T08:30:49.334Z,28.70
2022-12-25T08:36:03.291Z,29.80
2022-12-25T08:41:12.694Z,36.80
2022-12-25T08:46:21.238Z,37.00
2022-12-25T08:51:30.135Z,33.10
2022-12-25T08:56:38.966Z,31.60
2022-12-25T09:01:47.414Z,33.40
2022-12-25T09:06:56.388Z,32.30
2022-12-25T09:12:05.463Z,36.30
2022-12-25T09:17:14.121Z,31.90
2022-12-25T09:22:22.821Z,26.80
2022-12-25T09:27:31.336Z,26.00
2022-12-25T09:32:41.748Z,30.40
2022-12-25T09:37:50.081Z,30.20
2022-12-25T09:43:00.204Z,29.80
2022-12-25T09:48:15.024Z,26.20
2022-12-25T09:53:27.585Z,29.40
2022-12-25T09:58:37.296Z,32.80
2022-12-25T10:04:06.483Z,29.40
2022-12-25T10:09:40.919Z,26.80
2022-12-25T10:15:03.948Z,26.10
2022-12-25T10:20:25.715Z,26.00
2022-12-25T10:25:37.960Z,29.00
2022-12-25T10:30:48.062Z,29.20
2022-12-25T10:35:55.575Z,27.50
2022-12-25T10:41:20.839Z,27.40
2022-12-25T10:46:31.065Z,28.20
2022-12-25T10:51:41.213Z,24.50
2022-12-25T10:56:59.022Z,32.10
2022-12-25T11:02:23.099Z,22.30
2022-12-25T11:07:32.632Z,25.60
2022-12-25T11:12:45.302Z,20.80
2022-12-25T11:17:54.058Z,17.90
2022-12-25T11:23:03.637Z,18.70
2022-12-25T11:28:15.378Z,23.00
2022-12-25T11:33:29.640Z,24.00
2022-12-25T11:38:38.820Z,23.40
2022-12-25T11:43:53.193Z,38.40
2022-12-25T11:49:04.188Z,131.50
2022-12-25T11:54:22.369Z,152.60
2022-12-25T11:59:36.505Z,152.10
2022-12-25T12:04:49.802Z,126.10
2022-12-25T12:10:11.918Z,58.20
2022-12-25T12:15:29.371Z,30.90
2022-12-25T12:20:39.178Z,32.40
2022-12-25T12:25:50.641Z,23.50
2022-12-25T12:31:07.577Z,25.20
2022-12-25T12:36:25.018Z,26.90
2022-12-25T12:41:51.415Z,18.90
2022-12-25T12:47:00.382Z,22.80
2022-12-25T12:52:25.970Z,22.90
2022-12-25T12:57:40.299Z,21.10
2022-12-25T13:03:08.047Z,24.40
2022-12-25T13:08:37.129Z,25.30
2022-12-25T13:13:47.901Z,24.40
2022-12-25T13:18:58.029Z,20.90
2022-12-25T13:24:10.629Z,17.10
2022-12-25T13:29:30.967Z,16.40
2022-12-25T13:34:42.193Z,19.20
2022-12-25T13:39:56.579Z,14.40
2022-12-25T13:45:07.286Z,15.00
2022-12-25T13:50:23.479Z,15.50
2022-12-25T13:55:35.358Z,11.80
2022-12-25T14:00:50.641Z,13.20
2022-12-25T14:06:04.285Z,14.50
2022-12-25T14:11:16.253Z,16.60
2022-12-25T14:16:25.708Z,19.40
2022-12-25T14:21:38.858Z,19.30
2022-12-25T14:26:47.512Z,17.90
2022-12-25T14:31:59.269Z,20.10
2022-12-25T14:37:11.690Z,20.30
2022-12-25T14:42:26.657Z,18.40
2022-12-25T14:47:42.494Z,17.60
2022-12-25T14:52:51.210Z,17.30
2022-12-25T14:58:05.042Z,23.50
2022-12-25T15:03:25.295Z,20.60
2022-12-25T15:08:35.873Z,24.30
2022-12-25T15:13:44.810Z,25.90
2022-12-25T15:18:54.915Z,28.00
2022-12-25T15:24:04.483Z,25.50
2022-12-25T15:29:13.025Z,26.90
2022-12-25T15:34:22.646Z,29.60
2022-12-25T15:39:31.358Z,33.20
2022-12-25T15:44:40.754Z,25.70
2022-12-25T15:49:49.693Z,22.10
2022-12-25T15:54:58.215Z,24.10
2022-12-25T16:00:07.817Z,21.20
2022-12-25T16:05:22.446Z,18.70
2022-12-25T16:10:36.573Z,21.40
2022-12-25T16:15:47.860Z,24.70
2022-12-25T16:20:56.859Z,21.00
2022-12-25T16:26:05.349Z,18.60
2022-12-25T16:31:14.403Z,18.20
2022-12-25T16:36:26.949Z,21.10
2022-12-25T16:41:37.097Z,20.20
2022-12-25T16:46:46.637Z,19.80
2022-12-25T16:51:55.104Z,19.00
2022-12-25T16:57:03.580Z,19.70
2022-12-25T17:02:15.844Z,22.10
2022-12-25T17:07:24.706Z,22.20
2022-12-25T17:12:32.969Z,22.10
2022-12-25T17:17:42.127Z,23.90
2022-12-25T17:22:52.446Z,22.50
2022-12-25T17:28:01.105Z,21.30
2022-12-25T17:33:08.674Z,23.50
2022-12-25T17:38:17.302Z,21.20
2022-12-25T17:43:26.841Z,21.30
2022-12-25T17:48:37.309Z,24.50
2022-12-25T17:53:47.746Z,23.70
2022-12-25T17:58:57.921Z,21.00
2022-12-25T18:04:07.370Z,24.40
2022-12-25T18:09:16.476Z,23.50
2022-12-25T18:14:26.078Z,24.10
2022-12-25T18:19:35.177Z,21.50
2022-12-25T18:24:44.107Z,27.30
2022-12-25T18:29:52.645Z,26.50
2022-12-25T18:35:01.848Z,24.00
2022-12-25T18:40:12.210Z,27.50
2022-12-25T18:45:22.101Z,26.50
2022-12-25T18:50:30.579Z,29.40
2022-12-25T18:55:42.151Z,25.50
2022-12-25T19:00:51.014Z,29.90
2022-12-25T19:05:59.232Z,29.80
2022-12-25T19:11:12.037Z,25.90
2022-12-25T19:16:20.998Z,28.20
2022-12-25T19:21:29.315Z,27.50
2022-12-25T19:26:38.155Z,29.70
2022-12-25T19:31:47.631Z,30.90
2022-12-25T19:36:56.453Z,29.00
2022-12-25T19:42:05.331Z,32.00
2022-12-25T19:47:13.978Z,30.60
2022-12-25T19:52:22.884Z,32.90
2022-12-25T19:57:31.614Z,31.20
2022-12-25T20:02:39.938Z,30.70
2022-12-25T20:07:49.071Z,32.50
2022-12-25T20:12:57.549Z,34.80
2022-12-25T20:18:06.183Z,33.10
2022-12-25T20:23:15.148Z,33.90
2022-12-25T20:28:23.567Z,39.20
2022-12-25T20:33:31.729Z,35.40
2022-12-25T20:38:40.469Z,38.10
2022-12-25T20:43:49.361Z,41.70
2022-12-25T20:48:57.597Z,38.60
2022-12-25T20:54:10.022Z,37.40
2022-12-25T20:59:18.633Z,51.20
2022-12-25T21:04:27.544Z,60.90
2022-12-25T21:09:36.519Z,54.70
2022-12-25T21:14:45.191Z,52.00
2022-12-25T21:19:54.290Z,50.10
2022-12-25T21:25:03.253Z,46.60
2022-12-25T21:30:15.192Z,46.30
2022-12-25T21:35:24.775Z,49.40
2022-12-25T21:40:35.634Z,56.50
2022-12-25T21:45:44.324Z,57.10
2022-12-25T21:51:10.579Z,54.00
2022-12-25T21:56:19.563Z,48.90
2022-12-25T22:01:29.911Z,50.80
2022-12-25T22:06:57.482Z,45.50
2022-12-25T22:12:31.921Z,41.90
2022-12-25T22:18:02.784Z,46.20
2022-12-25T22:23:11.495Z,39.30
2022-12-25T22:28:20.964Z,47.70
2022-12-25T22:33:29.392Z,43.40
2022-12-25T22:38:38.834Z,45.30
2022-12-25T22:44:16.657Z,49.10
2022-12-25T22:49:17.637Z,40.90
2022-12-25T22:54:27.440Z,39.90
2022-12-25T22:59:37.464Z,40.20
2022-12-25T23:04:46.945Z,54.50
2022-12-25T23:09:55.162Z,52.40
2022-12-25T23:15:03.655Z,48.70
2022-12-25T23:20:32.158Z,44.60
2022-12-25T23:25:58.117Z,42.20
2022-12-25T23:31:06.565Z,43.70
2022-12-25T23:36:15.382Z,41.30
2022-12-25T23:41:24.106Z,43.60
2022-12-25T23:46:32.837Z,43.30
2022-12-25T23:51:44.194Z,40.40
2022-12-25T23:56:52.650Z,44.60
